sensor_id;sensor_type;location;lat;lon;timestamp;pressure;altitude;pressure_sealevel;temperature;humidity
35443;BME280;21561;55.654;37.592;2023-05-24T00:02:14;99344.78;;;15.38;99.22
35443;BME280;21561;55.654;37.592;2023-05-24T00:04:42;99337.94;;;15.34;99.29
35443;BME280;21561;55.654;37.592;2023-05-24T00:07:10;99341.63;;;15.27;99.54
35443;BME280;21561;55.654;37.592;2023-05-24T00:09:38;99341.84;;;15.21;99.50
35443;BME280;21561;55.654;37.592;2023-05-24T00:12:05;99341.09;;;15.17;99.59
35443;BME280;21561;55.654;37.592;2023-05-24T00:14:31;99338.59;;;15.13;100.00
35443;BME280;21561;55.654;37.592;2023-05-24T00:16:58;99334.28;;;15.12;100.00
35443;BME280;21561;55.654;37.592;2023-05-24T00:19:25;99331.69;;;15.12;100.00
35443;BME280;21561;55.654;37.592;2023-05-24T00:21:53;99332.69;;;15.07;100.00
35443;BME280;21561;55.654;37.592;2023-05-24T00:24:19;99328.34;;;15.06;100.00
35443;BME280;21561;55.654;37.592;2023-05-24T00:26:46;99324.94;;;15.04;100.00
35443;BME280;21561;55.654;37.592;2023-05-24T00:29:14;99321.50;;;15.02;100.00
35443;BME280;21561;55.654;37.592;2023-05-24T00:31:41;99322.34;;;15.03;100.00
35443;BME280;21561;55.654;37.592;2023-05-24T00:34:07;99317.97;;;15.03;100.00
35443;BME280;21561;55.654;37.592;2023-05-24T00:36:34;99309.25;;;15.04;100.00
35443;BME280;21561;55.654;37.592;2023-05-24T00:39:04;99310.94;;;15.05;100.00
35443;BME280;21561;55.654;37.592;2023-05-24T00:41:31;99299.59;;;15.06;100.00
35443;BME280;21561;55.654;37.592;2023-05-24T00:43:58;99302.22;;;15.06;100.00
35443;BME280;21561;55.654;37.592;2023-05-24T00:48:52;99297.88;;;15.05;100.00
35443;BME280;21561;55.654;37.592;2023-05-24T00:51:20;99297.00;;;15.06;100.00
35443;BME280;21561;55.654;37.592;2023-05-24T00:53:48;99299.56;;;15.08;100.00
35443;BME280;21561;55.654;37.592;2023-05-24T00:56:16;99303.94;;;15.07;100.00
35443;BME280;21561;55.654;37.592;2023-05-24T00:58:44;99300.41;;;15.08;100.00
35443;BME280;21561;55.654;37.592;2023-05-24T01:01:11;99298.72;;;15.07;100.00
35443;BME280;21561;55.654;37.592;2023-05-24T01:03:39;99297.88;;;15.05;100.00
35443;BME280;21561;55.654;37.592;2023-05-24T01:06:07;99295.47;;;14.99;100.00
35443;BME280;21561;55.654;37.592;2023-05-24T01:08:41;99293.75;;;14.98;100.00
35443;BME280;21561;55.654;37.592;2023-05-24T01:11:32;99293.75;;;14.98;100.00
35443;BME280;21561;55.654;37.592;2023-05-24T01:14:21;99292.97;;;14.95;100.00
35443;BME280;21561;55.654;37.592;2023-05-24T01:17:08;99283.50;;;14.92;100.00
35443;BME280;21561;55.654;37.592;2023-05-24T01:22:39;99278.34;;;14.89;100.00
35443;BME280;21561;55.654;37.592;2023-05-24T01:28:01;99276.22;;;14.74;100.00
35443;BME280;21561;55.654;37.592;2023-05-24T01:30:29;99284.16;;;14.70;100.00
35443;BME280;21561;55.654;37.592;2023-05-24T01:32:56;99278.13;;;14.68;100.00
35443;BME280;21561;55.654;37.592;2023-05-24T01:35:23;99274.69;;;14.66;100.00
35443;BME280;21561;55.654;37.592;2023-05-24T01:37:50;99267.78;;;14.64;100.00
35443;BME280;21561;55.654;37.592;2023-05-24T01:40:17;99277.41;;;14.63;100.00
35443;BME280;21561;55.654;37.592;2023-05-24T01:42:58;99277.13;;;14.73;100.00
35443;BME280;21561;55.654;37.592;2023-05-24T01:45:56;99280.72;;;14.68;100.00
35443;BME280;21561;55.654;37.592;2023-05-24T01:51:09;99280.84;;;14.64;100.00
35443;BME280;21561;55.654;37.592;2023-05-24T01:53:44;99277.97;;;14.73;100.00
35443;BME280;21561;55.654;37.592;2023-05-24T01:56:16;99283.16;;;14.75;100.00
35443;BME280;21561;55.654;37.592;2023-05-24T01:58:44;99276.84;;;14.82;100.00
35443;BME280;21561;55.654;37.592;2023-05-24T02:01:12;99274.84;;;14.90;100.00
35443;BME280;21561;55.654;37.592;2023-05-24T02:03:39;99271.25;;;14.94;100.00
35443;BME280;21561;55.654;37.592;2023-05-24T02:06:06;99272.75;;;15.01;100.00
35443;BME280;21561;55.654;37.592;2023-05-24T02:08:33;99263.88;;;15.07;100.00
35443;BME280;21561;55.654;37.592;2023-05-24T02:11:00;99262.94;;;15.10;100.00
35443;BME280;21561;55.654;37.592;2023-05-24T02:13:28;99261.06;;;15.13;99.93
35443;BME280;21561;55.654;37.592;2023-05-24T02:15:54;99260.91;;;15.18;98.51
35443;BME280;21561;55.654;37.592;2023-05-24T02:18:21;99263.34;;;15.24;98.01
35443;BME280;21561;55.654;37.592;2023-05-24T02:20:48;99265.84;;;15.27;98.40
35443;BME280;21561;55.654;37.592;2023-05-24T02:23:15;99265.78;;;15.28;99.52
35443;BME280;21561;55.654;37.592;2023-05-24T02:25:42;99259.72;;;15.28;99.68
35443;BME280;21561;55.654;37.592;2023-05-24T02:28:09;99269.31;;;15.27;100.00
35443;BME280;21561;55.654;37.592;2023-05-24T02:30:36;99258.00;;;15.27;100.00
35443;BME280;21561;55.654;37.592;2023-05-24T02:33:04;99258.00;;;15.27;100.00
35443;BME280;21561;55.654;37.592;2023-05-24T02:35:31;99253.72;;;15.24;100.00
35443;BME280;21561;55.654;37.592;2023-05-24T02:37:59;99254.63;;;15.23;100.00
35443;BME280;21561;55.654;37.592;2023-05-24T02:40:27;99252.00;;;15.23;100.00
35443;BME280;21561;55.654;37.592;2023-05-24T02:42:53;99256.31;;;15.26;100.00
35443;BME280;21561;55.654;37.592;2023-05-24T02:45:20;99257.09;;;15.28;100.00
35443;BME280;21561;55.654;37.592;2023-05-24T02:47:47;99248.41;;;15.27;100.00
35443;BME280;21561;55.654;37.592;2023-05-24T02:50:14;99258.69;;;15.32;100.00
35443;BME280;21561;55.654;37.592;2023-05-24T02:52:41;99258.59;;;15.35;99.54
35443;BME280;21561;55.654;37.592;2023-05-24T02:55:08;99250.69;;;15.38;98.88
35443;BME280;21561;55.654;37.592;2023-05-24T02:57:35;99252.19;;;15.45;99.10
35443;BME280;21561;55.654;37.592;2023-05-24T03:00:04;99243.31;;;15.50;98.72
35443;BME280;21561;55.654;37.592;2023-05-24T03:02:33;99248.47;;;15.53;98.46
35443;BME280;21561;55.654;37.592;2023-05-24T03:05:04;99253.56;;;15.56;97.44
35443;BME280;21561;55.654;37.592;2023-05-24T03:07:31;99249.06;;;15.59;96.88
35443;BME280;21561;55.654;37.592;2023-05-24T03:09:58;99251.66;;;15.61;95.77
35443;BME280;21561;55.654;37.592;2023-05-24T03:12:25;99246.31;;;15.64;95.30
35443;BME280;21561;55.654;37.592;2023-05-24T03:14:52;99247.97;;;15.66;95.46
35443;BME280;21561;55.654;37.592;2023-05-24T03:17:18;99242.69;;;15.68;95.85
35443;BME280;21561;55.654;37.592;2023-05-24T03:19:45;99242.59;;;15.71;96.44
35443;BME280;21561;55.654;37.592;2023-05-24T03:22:12;99243.44;;;15.72;95.71
35443;BME280;21561;55.654;37.592;2023-05-24T03:24:39;99242.53;;;15.74;95.43
35443;BME280;21561;55.654;37.592;2023-05-24T03:27:06;99244.22;;;15.75;96.20
35443;BME280;21561;55.654;37.592;2023-05-24T03:29:34;99240.69;;;15.76;95.99
35443;BME280;21561;55.654;37.592;2023-05-24T03:32:00;99239.69;;;15.80;96.34
35443;BME280;21561;55.654;37.592;2023-05-24T03:34:27;99230.75;;;15.86;96.46
35443;BME280;21561;55.654;37.592;2023-05-24T03:36:55;99228.03;;;15.89;95.92
35443;BME280;21561;55.654;37.592;2023-05-24T03:39:22;99227.88;;;15.94;95.85
35443;BME280;21561;55.654;37.592;2023-05-24T03:41:49;99236.44;;;15.99;95.93
35443;BME280;21561;55.654;37.592;2023-05-24T03:44:16;99231.06;;;16.02;95.64
35443;BME280;21561;55.654;37.592;2023-05-24T03:46:43;99225.84;;;16.02;95.86
35443;BME280;21561;55.654;37.592;2023-05-24T03:49:09;99223.22;;;16.02;96.24
35443;BME280;21561;55.654;37.592;2023-05-24T03:51:36;99225.84;;;16.02;96.72
35443;BME280;21561;55.654;37.592;2023-05-24T03:54:03;99221.53;;;16.01;96.38
35443;BME280;21561;55.654;37.592;2023-05-24T03:56:30;99219.81;;;16.00;96.17
35443;BME280;21561;55.654;37.592;2023-05-24T03:58:56;99220.59;;;16.02;95.65
35443;BME280;21561;55.654;37.592;2023-05-24T04:01:26;99225.00;;;16.01;94.85
35443;BME280;21561;55.654;37.592;2023-05-24T04:04:00;99227.56;;;16.03;94.64
35443;BME280;21561;55.654;37.592;2023-05-24T04:06:28;99220.59;;;16.02;93.23
35443;BME280;21561;55.654;37.592;2023-05-24T04:08:57;99223.06;;;16.07;92.72
35443;BME280;21561;55.654;37.592;2023-05-24T04:11:24;99227.31;;;16.09;92.51
35443;BME280;21561;55.654;37.592;2023-05-24T04:13:55;99231.56;;;16.13;93.17
35443;BME280;21561;55.654;37.592;2023-05-24T04:16:23;99220.06;;;16.17;92.16
35443;BME280;21561;55.654;37.592;2023-05-24T04:18:53;99224.25;;;16.21;92.22
35443;BME280;21561;55.654;37.592;2023-05-24T04:21:21;99231.91;;;16.28;92.38
35443;BME280;21561;55.654;37.592;2023-05-24T04:23:48;99224.50;;;16.39;90.73
35443;BME280;21561;55.654;37.592;2023-05-24T04:26:15;99225.72;;;16.52;89.19
35443;BME280;21561;55.654;37.592;2023-05-24T04:28:45;99222.56;;;16.66;88.58
35443;BME280;21561;55.654;37.592;2023-05-24T04:31:13;99219.53;;;16.77;86.93
35443;BME280;21561;55.654;37.592;2023-05-24T04:33:42;99217.38;;;16.88;86.72
35443;BME280;21561;55.654;37.592;2023-05-24T04:36:08;99218.72;;;16.98;85.46
35443;BME280;21561;55.654;37.592;2023-05-24T04:38:37;99218.34;;;17.08;85.36
35443;BME280;21561;55.654;37.592;2023-05-24T04:41:04;99219.91;;;17.12;84.56
35443;BME280;21561;55.654;37.592;2023-05-24T04:43:32;99223.19;;;17.17;84.70
35443;BME280;21561;55.654;37.592;2023-05-24T04:46:00;99224.66;;;17.24;84.20
35443;BME280;21561;55.654;37.592;2023-05-24T04:48:27;99219.16;;;17.30;83.71
35443;BME280;21561;55.654;37.592;2023-05-24T04:50:56;99221.47;;;17.38;83.42
35443;BME280;21561;55.654;37.592;2023-05-24T04:53:24;99215.94;;;17.44;83.03
35443;BME280;21561;55.654;37.592;2023-05-24T04:55:51;99221.91;;;17.48;83.23
35443;BME280;21561;55.654;37.592;2023-05-24T04:58:18;99214.34;;;17.62;82.80
35443;BME280;21561;55.654;37.592;2023-05-24T05:00:45;99219.03;;;17.74;82.54
35443;BME280;21561;55.654;37.592;2023-05-24T05:03:12;99207.19;;;17.86;81.71
35443;BME280;21561;55.654;37.592;2023-05-24T05:05:39;99218.84;;;18.00;81.00
35443;BME280;21561;55.654;37.592;2023-05-24T05:08:06;99223.63;;;18.10;80.43
35443;BME280;21561;55.654;37.592;2023-05-24T05:10:34;99240.66;;;18.21;80.19
35443;BME280;21561;55.654;37.592;2023-05-24T05:13:02;99238.50;;;18.30;79.67
35443;BME280;21561;55.654;37.592;2023-05-24T05:15:29;99245.31;;;18.35;78.15
35443;BME280;21561;55.654;37.592;2023-05-24T05:17:56;99243.53;;;18.35;78.31
35443;BME280;21561;55.654;37.592;2023-05-24T05:20:23;99247.94;;;18.35;77.70
35443;BME280;21561;55.654;37.592;2023-05-24T05:22:50;99243.25;;;18.41;77.73
35443;BME280;21561;55.654;37.592;2023-05-24T05:25:17;99243.75;;;18.49;76.42
35443;BME280;21561;55.654;37.592;2023-05-24T05:27:44;99237.16;;;18.60;76.71
35443;BME280;21561;55.654;37.592;2023-05-24T05:30:11;99239.19;;;18.72;76.04
35443;BME280;21561;55.654;37.592;2023-05-24T05:32:38;99237.84;;;18.82;75.37
35443;BME280;21561;55.654;37.592;2023-05-24T05:35:06;99243.59;;;18.91;74.52
35443;BME280;21561;55.654;37.592;2023-05-24T05:37:33;99226.75;;;18.95;73.65
35443;BME280;21561;55.654;37.592;2023-05-24T05:39:59;99228.09;;;19.03;73.66
35443;BME280;21561;55.654;37.592;2023-05-24T05:42:26;99233.91;;;19.10;73.43
35443;BME280;21561;55.654;37.592;2023-05-24T05:44:53;99230.34;;;19.11;72.49
35443;BME280;21561;55.654;37.592;2023-05-24T05:47:20;99235.47;;;19.14;72.37
35443;BME280;21561;55.654;37.592;2023-05-24T05:49:47;99228.06;;;19.22;72.46
35443;BME280;21561;55.654;37.592;2023-05-24T05:52:14;99233.00;;;19.29;72.26
35443;BME280;21561;55.654;37.592;2023-05-24T05:54:40;99234.41;;;19.36;71.64
35443;BME280;21561;55.654;37.592;2023-05-24T05:57:07;99232.84;;;19.32;70.78
35443;BME280;21561;55.654;37.592;2023-05-24T05:59:36;99232.16;;;19.28;71.16
35443;BME280;21561;55.654;37.592;2023-05-24T06:02:04;99229.59;;;19.26;71.56
35443;BME280;21561;55.654;37.592;2023-05-24T06:04:32;99224.19;;;19.30;72.05
35443;BME280;21561;55.654;37.592;2023-05-24T06:06:59;99232.72;;;19.35;72.08
35443;BME280;21561;55.654;37.592;2023-05-24T06:09:26;99234.25;;;19.39;72.10
35443;BME280;21561;55.654;37.592;2023-05-24T06:11:53;99223.72;;;19.39;71.19
35443;BME280;21561;55.654;37.592;2023-05-24T06:14:20;99220.00;;;19.43;70.57
35443;BME280;21561;55.654;37.592;2023-05-24T06:16:48;99223.03;;;19.35;70.48
35443;BME280;21561;55.654;37.592;2023-05-24T06:19:15;99209.72;;;19.21;71.00
35443;BME280;21561;55.654;37.592;2023-05-24T06:21:43;99217.81;;;19.16;71.92
35443;BME280;21561;55.654;37.592;2023-05-24T06:24:14;99217.69;;;19.19;71.93
35443;BME280;21561;55.654;37.592;2023-05-24T06:26:47;99216.66;;;19.22;71.73
35443;BME280;21561;55.654;37.592;2023-05-24T06:29:14;99217.22;;;19.29;71.70
35443;BME280;21561;55.654;37.592;2023-05-24T06:31:41;99212.59;;;19.34;71.51
35443;BME280;21561;55.654;37.592;2023-05-24T06:34:09;99225.44;;;19.40;70.57
35443;BME280;21561;55.654;37.592;2023-05-24T06:36:36;99219.03;;;19.45;71.21
35443;BME280;21561;55.654;37.592;2023-05-24T06:39:09;99213.22;;;19.56;70.97
35443;BME280;21561;55.654;37.592;2023-05-24T06:41:37;99219.53;;;19.52;70.48
35443;BME280;21561;55.654;37.592;2023-05-24T06:44:04;99225.59;;;19.54;71.34
35443;BME280;21561;55.654;37.592;2023-05-24T06:46:31;99220.22;;;19.56;71.56
35443;BME280;21561;55.654;37.592;2023-05-24T06:48:58;99225.66;;;19.53;71.40
35443;BME280;21561;55.654;37.592;2023-05-24T06:51:25;99219.25;;;19.41;71.85
35443;BME280;21561;55.654;37.592;2023-05-24T06:53:52;99212.38;;;19.38;71.98
35443;BME280;21561;55.654;37.592;2023-05-24T06:56:19;99209.72;;;19.38;71.94
35443;BME280;21561;55.654;37.592;2023-05-24T06:58:46;99213.91;;;19.42;72.08
35443;BME280;21561;55.654;37.592;2023-05-24T07:01:13;99212.88;;;19.45;71.38
35443;BME280;21561;55.654;37.592;2023-05-24T07:03:41;99212.59;;;19.51;71.42
35443;BME280;21561;55.654;37.592;2023-05-24T07:06:08;99213.66;;;19.64;71.22
35443;BME280;21561;55.654;37.592;2023-05-24T07:08:37;99216.75;;;19.73;70.45
35443;BME280;21561;55.654;37.592;2023-05-24T07:11:04;99206.69;;;19.81;69.85
35443;BME280;21561;55.654;37.592;2023-05-24T07:13:31;99222.19;;;19.87;70.04
35443;BME280;21561;55.654;37.592;2023-05-24T07:15:58;99219.06;;;19.96;70.38
35443;BME280;21561;55.654;37.592;2023-05-24T07:18:25;99221.41;;;19.85;70.33
35443;BME280;21561;55.654;37.592;2023-05-24T07:20:52;99226.19;;;19.94;69.61
35443;BME280;21561;55.654;37.592;2023-05-24T07:23:20;99228.41;;;20.02;69.25
35443;BME280;21561;55.654;37.592;2023-05-24T07:25:47;99229.25;;;20.02;69.59
35443;BME280;21561;55.654;37.592;2023-05-24T07:28:14;99227.25;;;20.08;70.39
35443;BME280;21561;55.654;37.592;2023-05-24T07:30:45;99223.34;;;20.15;70.32
35443;BME280;21561;55.654;37.592;2023-05-24T07:33:12;99223.34;;;20.15;69.18
35443;BME280;21561;55.654;37.592;2023-05-24T07:35:39;99231.31;;;19.97;69.60
35443;BME280;21561;55.654;37.592;2023-05-24T07:38:07;99227.38;;;19.89;70.39
35443;BME280;21561;55.654;37.592;2023-05-24T07:40:34;99229.59;;;19.96;70.42
35443;BME280;21561;55.654;37.592;2023-05-24T07:43:01;99221.97;;;20.08;69.63
35443;BME280;21561;55.654;37.592;2023-05-24T07:45:29;99223.88;;;20.21;69.81
35443;BME280;21561;55.654;37.592;2023-05-24T07:47:57;99230.63;;;20.10;69.49
35443;BME280;21561;55.654;37.592;2023-05-24T07:50:24;99229.25;;;20.02;69.93
35443;BME280;21561;55.654;37.592;2023-05-24T07:52:52;99231.47;;;19.94;69.85
35443;BME280;21561;55.654;37.592;2023-05-24T07:55:19;99233.63;;;19.86;70.07
35443;BME280;21561;55.654;37.592;2023-05-24T07:57:46;99236.66;;;19.78;70.43
35443;BME280;21561;55.654;37.592;2023-05-24T08:00:13;99232.00;;;19.66;70.24
35443;BME280;21561;55.654;37.592;2023-05-24T08:02:41;99240.75;;;19.49;71.88
35443;BME280;21561;55.654;37.592;2023-05-24T08:05:12;99242.91;;;19.41;72.39
35443;BME280;21561;55.654;37.592;2023-05-24T08:07:39;99236.66;;;19.26;73.20
35443;BME280;21561;55.654;37.592;2023-05-24T08:10:10;99238.88;;;19.34;72.76
35443;BME280;21561;55.654;37.592;2023-05-24T08:12:40;99238.25;;;19.29;73.49
35443;BME280;21561;55.654;37.592;2023-05-24T08:15:08;99242.13;;;19.21;74.12
35443;BME280;21561;55.654;37.592;2023-05-24T08:17:36;99252.19;;;19.31;74.10
35443;BME280;21561;55.654;37.592;2023-05-24T08:20:03;99247.09;;;19.45;74.22
35443;BME280;21561;55.654;37.592;2023-05-24T08:22:35;99244.94;;;19.53;74.70
35443;BME280;21561;55.654;37.592;2023-05-24T08:25:04;99246.53;;;19.56;73.89
35443;BME280;21561;55.654;37.592;2023-05-24T08:27:31;99246.53;;;19.56;74.20
35443;BME280;21561;55.654;37.592;2023-05-24T08:29:58;99243.06;;;19.55;73.43
35443;BME280;21561;55.654;37.592;2023-05-24T08:32:25;99243.22;;;19.52;73.33
35443;BME280;21561;55.654;37.592;2023-05-24T08:34:52;99247.19;;;19.43;72.81
35443;BME280;21561;55.654;37.592;2023-05-24T08:37:32;99246.91;;;19.31;73.62
35443;BME280;21561;55.654;37.592;2023-05-24T08:39:59;99240.56;;;19.17;74.64
35443;BME280;21561;55.654;37.592;2023-05-24T08:42:27;99242.25;;;19.18;75.08
35443;BME280;21561;55.654;37.592;2023-05-24T08:45:08;99250.88;;;19.39;75.14
35443;BME280;21561;55.654;37.592;2023-05-24T08:47:37;99247.88;;;19.47;74.00
35443;BME280;21561;55.654;37.592;2023-05-24T08:50:05;99246.00;;;19.67;73.50
35443;BME280;21561;55.654;37.592;2023-05-24T08:52:32;99243.00;;;19.92;72.53
35443;BME280;21561;55.654;37.592;2023-05-24T08:55:00;99251.41;;;20.16;71.90
35443;BME280;21561;55.654;37.592;2023-05-24T08:57:27;99239.09;;;20.32;71.00
35443;BME280;21561;55.654;37.592;2023-05-24T08:59:56;99240.75;;;20.51;70.15
35443;BME280;21561;55.654;37.592;2023-05-24T09:02:23;99238.41;;;20.62;70.09
35443;BME280;21561;55.654;37.592;2023-05-24T09:04:52;99244.88;;;20.72;68.96
35443;BME280;21561;55.654;37.592;2023-05-24T09:07:21;99243.06;;;20.89;67.98
35443;BME280;21561;55.654;37.592;2023-05-24T09:09:59;99246.88;;;21.15;68.66
35443;BME280;21561;55.654;37.592;2023-05-24T09:12:30;99247.47;;;21.20;67.04
35443;BME280;21561;55.654;37.592;2023-05-24T09:15:05;99240.94;;;21.11;63.41
35443;BME280;21561;55.654;37.592;2023-05-24T09:17:33;99242.56;;;20.98;63.10
35443;BME280;21561;55.654;37.592;2023-05-24T09:20:01;99235.84;;;20.92;63.20
35443;BME280;21561;55.654;37.592;2023-05-24T09:22:33;99243.84;;;20.91;62.64
35443;BME280;21561;55.654;37.592;2023-05-24T09:25:05;99240.88;;;20.97;61.89
35443;BME280;21561;55.654;37.592;2023-05-24T09:27:32;99246.03;;;21.14;62.63
35443;BME280;21561;55.654;37.592;2023-05-24T09:30:01;99246.09;;;21.29;61.61
35443;BME280;21561;55.654;37.592;2023-05-24T09:32:30;99239.50;;;21.52;61.38
35443;BME280;21561;55.654;37.592;2023-05-24T09:34:58;99239.75;;;21.78;61.00
35443;BME280;21561;55.654;37.592;2023-05-24T09:37:26;99221.38;;;22.05;59.63
35443;BME280;21561;55.654;37.592;2023-05-24T09:39:58;99212.13;;;22.41;57.51
35443;BME280;21561;55.654;37.592;2023-05-24T09:42:26;99216.88;;;22.77;56.46
35443;BME280;21561;55.654;37.592;2023-05-24T09:45:05;99211.88;;;23.27;55.50
35443;BME280;21561;55.654;37.592;2023-05-24T09:47:41;99199.28;;;23.84;54.10
35443;BME280;21561;55.654;37.592;2023-05-24T09:50:14;99168.13;;;24.37;51.15
35443;BME280;21561;55.654;37.592;2023-05-24T09:52:42;99153.91;;;24.01;49.33
35443;BME280;21561;55.654;37.592;2023-05-24T09:55:16;99203.78;;;23.56;51.01
35443;BME280;21561;55.654;37.592;2023-05-24T09:57:44;99233.16;;;22.98;52.86
35443;BME280;21561;55.654;37.592;2023-05-24T10:00:20;99242.06;;;22.97;54.20
35443;BME280;21561;55.654;37.592;2023-05-24T10:03:04;99241.28;;;23.10;54.05
35443;BME280;21561;55.654;37.592;2023-05-24T10:05:35;99220.31;;;23.06;52.72
35443;BME280;21561;55.654;37.592;2023-05-24T10:08:03;99226.16;;;23.12;53.16
35443;BME280;21561;55.654;37.592;2023-05-24T10:10:31;99197.25;;;23.74;51.47
35443;BME280;21561;55.654;37.592;2023-05-24T10:13:00;99174.16;;;24.02;49.80
35443;BME280;21561;55.654;37.592;2023-05-24T10:15:28;99194.81;;;23.97;50.32
35443;BME280;21561;55.654;37.592;2023-05-24T10:17:57;99223.56;;;23.37;50.39
35443;BME280;21561;55.654;37.592;2023-05-24T10:20:24;99281.03;;;22.81;53.44
35443;BME280;21561;55.654;37.592;2023-05-24T10:23:00;99291.25;;;22.58;54.75
35443;BME280;21561;55.654;37.592;2023-05-24T10:25:32;99290.66;;;22.24;55.90
35443;BME280;21561;55.654;37.592;2023-05-24T10:28:08;99285.63;;;22.05;56.54
35443;BME280;21561;55.654;37.592;2023-05-24T10:33:21;99281.75;;;21.82;57.82
35443;BME280;21561;55.654;37.592;2023-05-24T10:35:50;99283.25;;;21.86;58.01
35443;BME280;21561;55.654;37.592;2023-05-24T10:38:19;99272.97;;;22.10;57.27
35443;BME280;21561;55.654;37.592;2023-05-24T10:40:48;99273.94;;;22.24;57.10
35443;BME280;21561;55.654;37.592;2023-05-24T10:43:16;99269.34;;;22.27;56.22
35443;BME280;21561;55.654;37.592;2023-05-24T10:45:47;99277.88;;;22.33;56.03
35443;BME280;21561;55.654;37.592;2023-05-24T10:50:42;99291.88;;;21.74;57.80
35443;BME280;21561;55.654;37.592;2023-05-24T10:55:54;99289.34;;;21.72;58.60
35443;BME280;21561;55.654;37.592;2023-05-24T10:58:26;99287.53;;;21.73;58.84
35443;BME280;21561;55.654;37.592;2023-05-24T11:00:56;99283.59;;;21.80;58.27
35443;BME280;21561;55.654;37.592;2023-05-24T11:03:23;99280.59;;;21.86;57.48
35443;BME280;21561;55.654;37.592;2023-05-24T11:05:52;99297.63;;;21.97;58.48
35443;BME280;21561;55.654;37.592;2023-05-24T11:08:31;99284.44;;;22.11;56.65
35443;BME280;21561;55.654;37.592;2023-05-24T11:11:14;99297.34;;;22.16;57.36
35443;BME280;21561;55.654;37.592;2023-05-24T11:13:56;99280.06;;;22.24;56.81
35443;BME280;21561;55.654;37.592;2023-05-24T11:16:36;99295.03;;;22.40;56.53
35443;BME280;21561;55.654;37.592;2023-05-24T11:19:18;99283.31;;;22.29;55.37
35443;BME280;21561;55.654;37.592;2023-05-24T11:21:47;99296.00;;;21.94;56.54
35443;BME280;21561;55.654;37.592;2023-05-24T11:24:16;99307.03;;;21.86;57.64
35443;BME280;21561;55.654;37.592;2023-05-24T11:26:44;99309.66;;;21.86;57.67
35443;BME280;21561;55.654;37.592;2023-05-24T11:29:14;99307.13;;;21.99;58.28
35443;BME280;21561;55.654;37.592;2023-05-24T11:31:53;99296.31;;;22.18;58.07
35443;BME280;21561;55.654;37.592;2023-05-24T11:34:21;99298.75;;;22.07;58.04
35443;BME280;21561;55.654;37.592;2023-05-24T11:36:50;99292.84;;;22.32;57.68
35443;BME280;21561;55.654;37.592;2023-05-24T11:39:21;99305.19;;;22.75;57.38
35443;BME280;21561;55.654;37.592;2023-05-24T11:41:49;99295.56;;;22.88;56.96
35443;BME280;21561;55.654;37.592;2023-05-24T11:44:17;99280.31;;;23.33;55.23
35443;BME280;21561;55.654;37.592;2023-05-24T11:46:47;99276.09;;;23.43;54.67
35443;BME280;21561;55.654;37.592;2023-05-24T11:49:15;99285.13;;;23.14;54.18
35443;BME280;21561;55.654;37.592;2023-05-24T11:51:42;99286.00;;;22.85;54.71
35443;BME280;21561;55.654;37.592;2023-05-24T11:54:09;99301.81;;;22.73;56.37
35443;BME280;21561;55.654;37.592;2023-05-24T11:59:14;99308.72;;;22.46;57.08
35443;BME280;21561;55.654;37.592;2023-05-24T12:01:42;99307.59;;;21.91;58.48
35443;BME280;21561;55.654;37.592;2023-05-24T12:04:09;99309.16;;;21.80;59.49
35443;BME280;21561;55.654;37.592;2023-05-24T12:06:41;99302.66;;;21.85;60.03
35443;BME280;21561;55.654;37.592;2023-05-24T12:09:10;99305.69;;;21.79;60.16
35443;BME280;21561;55.654;37.592;2023-05-24T12:11:40;99302.81;;;21.68;60.07
35443;BME280;21561;55.654;37.592;2023-05-24T12:14:18;99292.78;;;21.59;61.62
35443;BME280;21561;55.654;37.592;2023-05-24T12:16:45;99296.91;;;21.48;62.01
35443;BME280;21561;55.654;37.592;2023-05-24T12:19:19;99293.44;;;21.62;62.45
35443;BME280;21561;55.654;37.592;2023-05-24T12:22:08;99296.53;;;21.54;61.94
35443;BME280;21561;55.654;37.592;2023-05-24T12:24:36;99295.88;;;21.35;61.78
35443;BME280;21561;55.654;37.592;2023-05-24T12:27:04;99295.19;;;21.31;62.39
35443;BME280;21561;55.654;37.592;2023-05-24T12:29:36;99294.34;;;21.31;63.06
35443;BME280;21561;55.654;37.592;2023-05-24T12:32:05;99289.44;;;21.25;63.67
35443;BME280;21561;55.654;37.592;2023-05-24T12:34:40;99289.44;;;21.25;63.59
35443;BME280;21561;55.654;37.592;2023-05-24T12:37:08;99289.75;;;21.19;64.26
35443;BME280;21561;55.654;37.592;2023-05-24T12:39:35;99286.88;;;21.07;64.56
35443;BME280;21561;55.654;37.592;2023-05-24T12:42:03;99284.78;;;20.98;64.88
35443;BME280;21561;55.654;37.592;2023-05-24T12:44:33;99283.22;;;20.94;65.35
35443;BME280;21561;55.654;37.592;2023-05-24T12:47:02;99278.53;;;20.83;66.01
35443;BME280;21561;55.654;37.592;2023-05-24T12:49:30;99277.69;;;20.83;65.58
35443;BME280;21561;55.654;37.592;2023-05-24T12:51:57;99279.22;;;20.87;65.76
35443;BME280;21561;55.654;37.592;2023-05-24T12:54:25;99280.25;;;20.84;66.23
35443;BME280;21561;55.654;37.592;2023-05-24T12:56:54;99279.06;;;20.90;66.30
35443;BME280;21561;55.654;37.592;2023-05-24T12:59:24;99285.69;;;20.97;66.16
35443;BME280;21561;55.654;37.592;2023-05-24T13:01:51;99288.94;;;21.02;64.76
35443;BME280;21561;55.654;37.592;2023-05-24T13:04:21;99286.53;;;21.13;64.82
35443;BME280;21561;55.654;37.592;2023-05-24T13:06:48;99280.41;;;21.29;63.51
35443;BME280;21561;55.654;37.592;2023-05-24T13:09:15;99284.97;;;21.41;63.33
35443;BME280;21561;55.654;37.592;2023-05-24T13:11:50;99291.47;;;21.66;62.54
35443;BME280;21561;55.654;37.592;2023-05-24T13:14:18;99295.28;;;21.76;62.05
35443;BME280;21561;55.654;37.592;2023-05-24T13:16:46;99298.88;;;21.75;61.96
35443;BME280;21561;55.654;37.592;2023-05-24T13:19:13;99288.34;;;21.89;62.04